Time;durP1;ratioP1;P1;durP2;ratioP2;P2;SDS_P1;SDS_P2;PMS_P1;PMS_P2;Temp;Humidity;BMP_temperature;BMP_pressure;BME280_temperature;BME280_humidity;BME280_pressure;Samples;Min_cycle;Max_cycle;Signal;HPM_P1;HPM_P2
2023/09/28 00:01:46;;;;;;;7.57;1.30;;;14.80;99.90;;;;;;4960967;29;20493;-94
2023/09/28 00:04:12;;;;;;;9.68;1.30;;;14.80;99.90;;;;;;4957864;29;20073;-94
2023/09/28 00:06:37;;;;;;;10.38;2.20;;;14.80;99.90;;;;;;4959396;29;20019;-93
2023/09/28 00:09:04;;;;;;;5.30;1.02;;;14.80;99.90;;;;;;4959325;29;20046;-92
2023/09/28 00:11:30;;;;;;;7.88;1.30;;;14.80;99.90;;;;;;4959809;29;20019;-93
2023/09/28 00:13:55;;;;;;;5.72;1.10;;;14.70;99.90;;;;;;4955163;29;20126;-91
2023/09/28 00:16:21;;;;;;;7.05;1.20;;;14.70;99.90;;;;;;4957577;29;20032;-93
2023/09/28 00:18:47;;;;;;;9.57;1.30;;;14.70;99.90;;;;;;4959221;28;20094;-94
2023/09/28 00:21:13;;;;;;;6.35;1.15;;;14.70;99.90;;;;;;4960511;29;20131;-93
2023/09/28 00:23:38;;;;;;;9.10;1.15;;;14.70;99.90;;;;;;4977912;28;20035;-92
2023/09/28 00:26:04;;;;;;;7.40;1.20;;;14.70;99.90;;;;;;4977608;28;20047;-92
2023/09/28 00:28:30;;;;;;;3.95;0.80;;;14.70;99.90;;;;;;4977263;28;20035;-94
2023/09/28 00:30:56;;;;;;;7.30;1.10;;;14.60;99.90;;;;;;4973180;28;20054;-92
2023/09/28 00:33:22;;;;;;;5.38;1.33;;;14.60;99.90;;;;;;4975703;28;20039;-93
2023/09/28 00:35:47;;;;;;;4.88;1.00;;;14.60;99.90;;;;;;4976943;28;20367;-92
2023/09/28 00:38:13;;;;;;;7.40;1.10;;;14.50;99.90;;;;;;4962002;29;20117;-92
2023/09/28 00:40:39;;;;;;;5.53;0.70;;;14.50;99.90;;;;;;4979789;28;20034;-93
2023/09/28 00:43:05;;;;;;;3.72;0.80;;;14.50;99.90;;;;;;4982049;28;20046;-93
2023/09/28 00:45:31;;;;;;;2.47;0.80;;;14.50;99.90;;;;;;4979194;28;20044;-93
2023/09/28 00:48:02;;;;;;;4.20;0.77;;;14.50;99.90;;;;;;4979933;28;20023;-93
2023/09/28 00:50:29;;;;;;;;;;;14.50;99.90;;;;;;4979534;28;20082;-93
2023/09/28 00:53:00;;;;;;;3.58;0.73;;;14.50;99.90;;;;;;4962047;28;19906;-93
2023/09/28 00:55:27;;;;;;;6.60;0.93;;;14.40;99.90;;;;;;4976730;28;20050;-93
2023/09/28 00:57:58;;;;;;;5.32;0.90;;;14.40;99.90;;;;;;4979836;28;20491;-93
2023/09/28 01:00:28;;;;;;;;;;;14.40;99.90;;;;;;4965655;28;20035;-93
2023/09/28 01:02:59;;;;;;;6.27;0.90;;;14.30;99.90;;;;;;4964758;28;19910;-93
2023/09/28 01:05:26;;;;;;;;;;;14.30;99.90;;;;;;4982234;28;20842;-93
2023/09/28 01:07:53;;;;;;;3.65;1.10;;;14.30;99.90;;;;;;4964351;28;19910;-94
2023/09/28 01:10:25;;;;;;;8.48;1.15;;;14.30;99.90;;;;;;4981736;28;20019;-92
2023/09/28 01:12:51;;;;;;;5.03;1.08;;;14.30;99.90;;;;;;4981366;28;20034;-91
2023/09/28 01:15:17;;;;;;;6.07;1.23;;;14.30;99.90;;;;;;4980431;28;20125;-93
2023/09/28 01:17:44;;;;;;;6.43;1.35;;;14.30;99.90;;;;;;4964638;28;20031;-93
2023/09/28 01:20:17;;;;;;;8.07;1.75;;;14.40;99.90;;;;;;4965303;28;20089;-92
2023/09/28 01:22:49;;;;;;;10.88;1.05;;;14.40;99.90;;;;;;4982433;28;20047;-93
2023/09/28 01:25:15;;;;;;;5.40;1.40;;;14.40;99.90;;;;;;4982120;28;20161;-92
2023/09/28 01:27:45;;;;;;;8.60;1.50;;;14.40;99.90;;;;;;4981710;28;20491;-93
2023/09/28 01:30:11;;;;;;;6.97;1.23;;;14.50;99.90;;;;;;4980293;28;20030;-92
2023/09/28 01:32:38;;;;;;;10.57;1.75;;;14.50;99.90;;;;;;4980911;28;20031;-92
2023/09/28 01:35:04;;;;;;;16.08;1.73;;;14.50;99.90;;;;;;4963116;28;20133;-92
2023/09/28 01:37:39;;;;;;;9.45;1.48;;;14.50;99.90;;;;;;4964518;28;20175;-94
2023/09/28 01:40:08;;;;;;;10.23;1.90;;;14.50;99.90;;;;;;4962355;28;20031;-92
2023/09/28 01:42:33;;;;;;;10.15;2.20;;;14.50;99.90;;;;;;4960363;28;20027;-93
2023/09/28 01:44:59;;;;;;;7.78;1.42;;;14.60;99.90;;;;;;4962111;28;20082;-94
2023/09/28 01:47:25;;;;;;;10.52;1.35;;;14.50;99.90;;;;;;4960386;28;20050;-93
2023/09/28 01:49:50;;;;;;;12.05;1.50;;;14.50;99.90;;;;;;4960063;28;20031;-93
2023/09/28 01:52:16;;;;;;;10.63;2.30;;;14.50;99.90;;;;;;4959896;28;20034;-92
2023/09/28 01:54:42;;;;;;;10.07;2.47;;;14.60;99.90;;;;;;4958943;28;20070;-93
2023/09/28 01:57:08;;;;;;;12.40;2.08;;;14.60;99.90;;;;;;4959745;28;20038;-93
2023/09/28 01:59:34;;;;;;;10.27;2.17;;;14.60;99.90;;;;;;4958647;28;20027;-93
2023/09/28 02:02:01;;;;;;;8.27;1.20;;;14.60;99.90;;;;;;4959548;28;20026;-92
2023/09/28 02:04:26;;;;;;;9.35;2.10;;;14.60;99.90;;;;;;4958687;28;20035;-93
2023/09/28 02:06:53;;;;;;;10.25;2.13;;;14.60;99.90;;;;;;4955636;29;20520;-92
2023/09/28 02:09:19;;;;;;;9.25;1.70;;;14.60;99.90;;;;;;4959937;29;20042;-92
2023/09/28 02:11:44;;;;;;;10.07;2.15;;;14.60;99.90;;;;;;4966816;29;20087;-91
2023/09/28 02:14:11;;;;;;;8.63;2.00;;;14.60;99.90;;;;;;4967701;29;20031;-92
2023/09/28 02:16:37;;;;;;;13.38;1.90;;;14.60;99.90;;;;;;4963413;29;20027;-92
2023/09/28 02:19:04;;;;;;;8.32;1.33;;;14.60;99.90;;;;;;4961546;29;20118;-91
2023/09/28 02:21:30;;;;;;;11.95;1.58;;;14.60;99.90;;;;;;4943208;29;20033;-92
2023/09/28 02:23:58;;;;;;;9.80;2.20;;;14.60;99.90;;;;;;4958569;29;20019;-92
2023/09/28 02:26:27;;;;;;;14.68;2.70;;;14.50;99.90;;;;;;4957356;29;20062;-91
2023/09/28 02:28:53;;;;;;;13.13;1.60;;;14.50;99.90;;;;;;4956446;29;20054;-93
2023/09/28 02:31:18;;;;;;;10.20;2.70;;;14.50;99.90;;;;;;4957247;29;20031;-91
2023/09/28 02:33:47;;;;;;;14.15;2.05;;;14.50;99.90;;;;;;4956715;29;20123;-92
2023/09/28 02:36:14;;;;;;;11.30;1.85;;;14.60;99.90;;;;;;4956116;29;20034;-92
2023/09/28 02:38:40;;;;;;;10.20;1.55;;;14.60;99.90;;;;;;4954608;29;20032;-93
2023/09/28 02:41:15;;;;;;;13.85;2.70;;;14.60;99.90;;;;;;4955859;29;20026;-91
2023/09/28 02:43:41;;;;;;;13.15;1.90;;;14.50;99.90;;;;;;4957373;29;20043;-92
2023/09/28 02:46:06;;;;;;;18.58;2.40;;;14.50;99.90;;;;;;4968229;29;20042;-92
2023/09/28 02:48:33;;;;;;;11.35;1.52;;;14.50;99.90;;;;;;4963156;29;20581;-93
2023/09/28 02:50:59;;;;;;;8.20;1.88;;;14.50;99.90;;;;;;4956753;29;20035;-93
2023/09/28 02:53:26;;;;;;;10.48;1.75;;;14.50;99.90;;;;;;4957500;29;20071;-92
2023/09/28 02:55:52;;;;;;;8.07;1.20;;;14.50;99.90;;;;;;4958255;29;20186;-93
2023/09/28 02:58:18;;;;;;;14.27;1.98;;;14.50;99.90;;;;;;4955884;29;20030;-93
2023/09/28 03:00:43;;;;;;;11.05;1.67;;;14.50;99.90;;;;;;4955581;29;20432;-94
2023/09/28 03:03:09;;;;;;;11.18;1.90;;;14.50;99.90;;;;;;4954533;29;20113;-93
2023/09/28 03:05:38;;;;;;;17.15;2.65;;;14.50;99.90;;;;;;4938608;29;20066;-93
2023/09/28 03:08:09;;;;;;;10.90;2.95;;;14.40;99.90;;;;;;4955105;29;20034;-94
2023/09/28 03:10:44;;;;;;;;;;;14.40;99.90;;;;;;4955611;29;20028;-93
2023/09/28 03:13:11;;;;;;;7.90;1.55;;;14.40;99.90;;;;;;4954129;29;19914;-94
2023/09/28 03:15:40;;;;;;;14.10;2.58;;;14.40;99.90;;;;;;4954502;29;20113;-94
2023/09/28 03:18:06;;;;;;;11.05;1.92;;;14.30;99.90;;;;;;4954674;29;20027;-93
2023/09/28 03:20:33;;;;;;;20.83;2.38;;;14.30;99.90;;;;;;4938493;29;20126;-93
2023/09/28 03:22:58;;;;;;;14.30;2.03;;;14.30;99.90;;;;;;4938176;29;20122;-93
2023/09/28 03:25:24;;;;;;;11.73;1.88;;;14.30;99.90;;;;;;4954432;29;20063;-94
2023/09/28 03:27:52;;;;;;;10.15;2.40;;;14.30;99.90;;;;;;4957190;29;20027;-92
2023/09/28 03:30:19;;;;;;;18.00;2.05;;;14.30;99.90;;;;;;4961823;29;20055;-92
2023/09/28 03:32:48;;;;;;;18.55;2.38;;;14.30;99.90;;;;;;4961866;29;20027;-93
2023/09/28 03:35:16;;;;;;;11.82;1.90;;;14.30;99.90;;;;;;4942172;29;20047;-92
2023/09/28 03:37:42;;;;;;;15.60;2.33;;;14.20;99.90;;;;;;4953718;29;20034;-93
2023/09/28 03:40:10;;;;;;;15.10;3.15;;;14.20;99.90;;;;;;4956265;29;20023;-92
2023/09/28 03:42:40;;;;;;;16.85;2.28;;;14.20;99.90;;;;;;4955070;29;20628;-94
2023/09/28 03:45:10;;;;;;;13.32;1.80;;;14.20;99.90;;;;;;4955397;29;20055;-92
2023/09/28 03:47:36;;;;;;;20.83;2.20;;;14.10;99.90;;;;;;4954603;29;20027;-94
2023/09/28 03:50:03;;;;;;;15.00;2.00;;;14.10;99.90;;;;;;4954572;29;20095;-93
2023/09/28 03:52:30;;;;;;;13.38;2.40;;;14.10;99.90;;;;;;4938271;29;20203;-92
2023/09/28 03:54:56;;;;;;;15.68;1.90;;;14.10;99.90;;;;;;4954895;29;20516;-93
2023/09/28 03:57:22;;;;;;;16.08;3.38;;;14.10;99.90;;;;;;4955652;29;20027;-93
2023/09/28 03:59:49;;;;;;;12.07;1.67;;;14.10;99.90;;;;;;4953558;29;20119;-93
2023/09/28 04:02:15;;;;;;;9.98;1.88;;;14.10;99.90;;;;;;4955478;29;20024;-92
2023/09/28 04:04:40;;;;;;;14.80;2.40;;;14.10;99.90;;;;;;4938421;29;20106;-92
2023/09/28 04:07:08;;;;;;;13.85;1.60;;;14.10;99.90;;;;;;4954002;29;20030;-92
2023/09/28 04:09:34;;;;;;;14.50;1.90;;;14.10;99.90;;;;;;4938786;29;20035;-92
2023/09/28 04:12:00;;;;;;;14.32;2.17;;;14.10;99.90;;;;;;4954480;29;20023;-92
2023/09/28 04:14:26;;;;;;;13.18;2.17;;;14.10;99.90;;;;;;4955358;29;20035;-92
2023/09/28 04:16:51;;;;;;;13.30;1.83;;;14.00;99.90;;;;;;4954298;28;20074;-93
2023/09/28 04:19:17;;;;;;;11.23;1.50;;;14.10;99.90;;;;;;4958259;29;20027;-94
2023/09/28 04:21:42;;;;;;;18.23;2.65;;;14.10;99.90;;;;;;4957827;29;20461;-93
2023/09/28 04:24:08;;;;;;;19.60;2.35;;;14.10;99.90;;;;;;4957805;29;20027;-93
2023/09/28 04:26:34;;;;;;;10.68;1.90;;;14.10;99.90;;;;;;4941817;29;20042;-93
2023/09/28 04:29:00;;;;;;;26.27;3.63;;;14.10;99.90;;;;;;4941100;29;20182;-93
2023/09/28 04:31:26;;;;;;;11.38;2.25;;;14.10;99.90;;;;;;4957550;29;20091;-91
2023/09/28 04:33:52;;;;;;;7.55;1.60;;;14.10;99.90;;;;;;4956309;29;20595;-92
2023/09/28 04:36:18;;;;;;;21.90;2.92;;;14.10;99.90;;;;;;4956975;29;20019;-92
2023/09/28 04:38:44;;;;;;;13.68;2.35;;;14.10;99.90;;;;;;4957556;29;20057;-91
2023/09/28 04:41:11;;;;;;;16.00;2.10;;;14.10;99.90;;;;;;4942116;29;20027;-91
2023/09/28 04:43:37;;;;;;;6.70;1.63;;;14.10;99.90;;;;;;4958029;29;20071;-92
2023/09/28 04:46:06;;;;;;;17.63;1.90;;;14.10;99.90;;;;;;4960533;29;20039;-93
2023/09/28 04:48:33;;;;;;;12.80;1.83;;;14.10;99.90;;;;;;4959307;29;20054;-92
2023/09/28 04:50:58;;;;;;;11.55;1.73;;;14.10;99.90;;;;;;4956367;29;20081;-92
2023/09/28 04:53:24;;;;;;;26.25;2.67;;;14.10;99.90;;;;;;4956641;29;20126;-92
2023/09/28 04:55:51;;;;;;;10.25;2.28;;;14.10;99.90;;;;;;4957608;29;20028;-93
2023/09/28 04:58:17;;;;;;;14.25;2.78;;;14.10;99.90;;;;;;4939927;29;20071;-93
2023/09/28 05:00:43;;;;;;;15.90;1.85;;;14.10;99.90;;;;;;4957053;29;20125;-90
2023/09/28 05:03:08;;;;;;;18.95;2.97;;;14.00;99.90;;;;;;4956364;29;20498;-91
2023/09/28 05:05:34;;;;;;;14.90;2.88;;;14.00;99.90;;;;;;4956976;29;20473;-93
2023/09/28 05:08:00;;;;;;;15.48;2.65;;;14.00;99.90;;;;;;4957779;29;20125;-93
2023/09/28 05:10:26;;;;;;;14.15;2.22;;;14.00;99.90;;;;;;4963595;29;20027;-91
2023/09/28 05:12:52;;;;;;;12.65;1.90;;;14.00;99.90;;;;;;4949221;29;20095;-93
2023/09/28 05:15:17;;;;;;;11.73;1.75;;;14.00;99.90;;;;;;4968257;28;20126;-92
2023/09/28 05:17:43;;;;;;;20.08;2.08;;;14.00;99.90;;;;;;4971863;28;20031;-91
2023/09/28 05:20:09;;;;;;;11.55;1.95;;;14.00;99.90;;;;;;4967443;28;20110;-92
2023/09/28 05:22:38;;;;;;;7.97;2.17;;;14.00;99.90;;;;;;4965550;28;20174;-93
2023/09/28 05:25:05;;;;;;;14.50;1.75;;;14.00;99.90;;;;;;4968541;28;20125;-93
2023/09/28 05:27:31;;;;;;;18.00;2.30;;;14.00;99.90;;;;;;4965678;28;20035;-93
2023/09/28 05:29:56;;;;;;;14.85;2.03;;;14.00;99.90;;;;;;4967089;28;20027;-92
2023/09/28 05:32:22;;;;;;;10.30;1.85;;;14.00;99.90;;;;;;4966683;28;20468;-93
2023/09/28 05:34:48;;;;;;;18.88;2.90;;;14.00;99.90;;;;;;4969240;28;20027;-92
2023/09/28 05:37:14;;;;;;;17.80;2.53;;;13.90;99.90;;;;;;4968772;28;20015;-93
2023/09/28 05:39:42;;;;;;;13.43;2.20;;;13.90;99.90;;;;;;4965674;28;20034;-92
2023/09/28 05:42:07;;;;;;;16.67;2.30;;;13.90;99.90;;;;;;4964697;28;20027;-93
2023/09/28 05:44:33;;;;;;;15.55;2.20;;;13.90;99.90;;;;;;4963622;28;20106;-93
2023/09/28 05:46:59;;;;;;;10.85;1.40;;;13.90;99.90;;;;;;4963629;28;20030;-93
2023/09/28 05:49:26;;;;;;;15.05;2.63;;;13.90;99.90;;;;;;4964523;28;20027;-92
2023/09/28 05:51:52;;;;;;;9.82;1.80;;;13.90;99.90;;;;;;4951069;28;20019;-93
2023/09/28 05:54:18;;;;;;;20.83;2.05;;;13.90;99.90;;;;;;4964750;28;20131;-92
2023/09/28 05:56:44;;;;;;;13.10;2.10;;;13.90;99.90;;;;;;4965660;28;20052;-93
2023/09/28 05:59:11;;;;;;;14.20;2.78;;;13.90;99.90;;;;;;4968913;28;20031;-92
2023/09/28 06:01:37;;;;;;;14.68;1.73;;;13.90;99.90;;;;;;4963778;28;20026;-91
2023/09/28 06:04:04;;;;;;;13.68;2.13;;;13.90;99.90;;;;;;4961281;28;20034;-92
2023/09/28 06:06:30;;;;;;;12.45;1.63;;;13.90;99.90;;;;;;4969593;28;20366;-93
2023/09/28 06:08:56;;;;;;;12.63;1.75;;;13.90;99.90;;;;;;4961861;28;20036;-92
2023/09/28 06:11:22;;;;;;;9.75;1.52;;;13.90;99.90;;;;;;4962185;28;20027;-92
2023/09/28 06:13:48;;;;;;;12.82;2.05;;;13.90;99.90;;;;;;4967549;28;20516;-92
2023/09/28 06:16:14;;;;;;;9.20;1.75;;;13.90;99.90;;;;;;4965402;28;20054;-93
2023/09/28 06:18:42;;;;;;;17.15;2.15;;;13.90;99.90;;;;;;4957098;29;20027;-93
2023/09/28 06:21:08;;;;;;;16.88;3.08;;;13.90;99.90;;;;;;4956733;29;20028;-91
2023/09/28 06:23:35;;;;;;;10.95;2.28;;;13.90;99.90;;;;;;4955209;29;20035;-93
2023/09/28 06:26:01;;;;;;;19.90;2.50;;;13.90;99.90;;;;;;4955731;29;20027;-92
2023/09/28 06:28:27;;;;;;;11.60;2.25;;;13.90;99.90;;;;;;4954479;29;20027;-91
2023/09/28 06:30:53;;;;;;;12.05;2.15;;;13.90;99.90;;;;;;4953863;29;20031;-93
2023/09/28 06:33:24;;;;;;;13.20;1.80;;;13.80;99.90;;;;;;4954788;29;20035;-92
2023/09/28 06:35:50;;;;;;;13.52;2.10;;;13.80;99.90;;;;;;4969329;28;20493;-92
2023/09/28 06:38:16;;;;;;;18.33;2.50;;;13.80;99.90;;;;;;4973841;28;20166;-92
2023/09/28 06:40:44;;;;;;;12.88;1.95;;;13.80;99.90;;;;;;4972793;28;20485;-93
2023/09/28 06:43:09;;;;;;;8.88;1.50;;;13.80;99.90;;;;;;4975184;28;20057;-90
2023/09/28 06:45:35;;;;;;;12.80;2.53;;;13.80;99.90;;;;;;4985356;28;20027;-92
2023/09/28 06:48:01;;;;;;;13.73;2.08;;;13.80;99.90;;;;;;4981605;28;20117;-91
2023/09/28 06:50:27;;;;;;;8.85;1.75;;;13.80;99.90;;;;;;4968522;28;20122;-92
2023/09/28 06:52:53;;;;;;;13.75;2.15;;;13.80;99.90;;;;;;4938393;29;20058;-93
2023/09/28 06:55:19;;;;;;;12.02;2.80;;;13.80;99.90;;;;;;4954540;29;20370;-92
2023/09/28 06:57:46;;;;;;;16.77;2.40;;;13.80;99.90;;;;;;4942748;29;20042;-93
2023/09/28 07:00:16;;;;;;;12.52;2.08;;;13.80;99.90;;;;;;4957490;28;20035;-93
2023/09/28 07:02:47;;;;;;;17.77;1.98;;;13.80;99.90;;;;;;4978735;28;20043;-93
2023/09/28 07:05:16;;;;;;;13.98;1.92;;;13.70;99.90;;;;;;4973464;28;20050;-94
2023/09/28 07:07:46;;;;;;;14.07;2.22;;;13.70;99.90;;;;;;4974014;28;20054;-92
2023/09/28 07:10:13;;;;;;;20.85;2.47;;;13.70;99.90;;;;;;4973913;28;20612;-93
2023/09/28 07:12:40;;;;;;;21.10;2.25;;;13.70;99.90;;;;;;4973703;28;20034;-92
2023/09/28 07:15:07;;;;;;;13.30;2.45;;;13.70;99.90;;;;;;4963276;28;20126;-94
2023/09/28 07:17:33;;;;;;;15.75;2.28;;;13.80;99.90;;;;;;4964245;28;20154;-95
2023/09/28 07:19:59;;;;;;;12.20;2.58;;;13.80;99.90;;;;;;4941007;28;20027;-95
2023/09/28 07:22:25;;;;;;;16.05;3.25;;;13.80;99.90;;;;;;4937992;29;20528;-93
2023/09/28 07:24:50;;;;;;;16.17;2.10;;;13.80;99.90;;;;;;4951484;28;20081;-96
2023/09/28 07:27:16;;;;;;;18.48;2.95;;;13.80;99.90;;;;;;4956251;28;20023;-93
2023/09/28 07:29:42;;;;;;;18.77;2.72;;;13.80;99.90;;;;;;4954944;29;20036;-93
2023/09/28 07:32:08;;;;;;;18.63;2.53;;;13.80;99.90;;;;;;4938391;29;20030;-93
2023/09/28 07:34:34;;;;;;;15.35;3.05;;;13.80;99.90;;;;;;4948529;28;20031;-94
2023/09/28 07:37:01;;;;;;;9.60;1.88;;;13.80;99.90;;;;;;4957413;28;20054;-91
2023/09/28 07:39:26;;;;;;;19.75;2.80;;;13.80;99.90;;;;;;4956646;28;20117;-93
2023/09/28 07:41:52;;;;;;;14.98;2.58;;;13.80;99.90;;;;;;4957423;28;20135;-91
2023/09/28 07:44:21;;;;;;;18.83;2.70;;;13.80;99.90;;;;;;4966139;28;20046;-94
2023/09/28 07:46:47;;;;;;;13.30;2.13;;;13.80;99.90;;;;;;4975349;28;20479;-93
2023/09/28 07:49:14;;;;;;;17.75;2.42;;;13.80;99.90;;;;;;4975715;28;20214;-93
2023/09/28 07:51:40;;;;;;;18.90;2.90;;;13.80;99.90;;;;;;4976462;28;20145;-93
2023/09/28 07:54:06;;;;;;;16.27;3.03;;;13.80;99.90;;;;;;4975134;28;20031;-93
2023/09/28 07:56:33;;;;;;;17.83;2.88;;;13.80;99.90;;;;;;4961239;28;20055;-93
2023/09/28 07:59:01;;;;;;;21.02;3.05;;;13.80;99.90;;;;;;4966950;28;20160;-93
2023/09/28 08:01:26;;;;;;;15.38;2.80;;;13.90;99.90;;;;;;4961790;28;20023;-93
2023/09/28 08:03:52;;;;;;;14.85;2.47;;;13.90;99.90;;;;;;4954212;28;20159;-94
2023/09/28 08:06:20;;;;;;;20.65;2.55;;;13.90;99.90;;;;;;4967078;28;20027;-92
2023/09/28 08:08:45;;;;;;;13.93;2.13;;;13.90;99.90;;;;;;4974787;28;20044;-93
2023/09/28 08:11:12;;;;;;;12.57;2.35;;;14.00;99.90;;;;;;4987229;28;20126;-93
2023/09/28 08:13:38;;;;;;;6.57;1.70;;;14.00;99.90;;;;;;4984539;28;20125;-92
2023/09/28 08:16:04;;;;;;;13.30;2.20;;;14.10;99.90;;;;;;4981813;28;20065;-93
2023/09/28 08:18:30;;;;;;;17.25;2.47;;;14.00;99.90;;;;;;4981510;28;20038;-94
2023/09/28 08:20:56;;;;;;;19.17;2.90;;;14.10;99.90;;;;;;4981200;28;20452;-93
2023/09/28 08:23:22;;;;;;;13.68;2.45;;;14.20;99.90;;;;;;4980193;28;20049;-93
2023/09/28 08:25:47;;;;;;;20.77;2.55;;;14.20;99.90;;;;;;4979904;28;20022;-94
2023/09/28 08:28:14;;;;;;;10.15;2.28;;;14.30;99.90;;;;;;4982567;28;20491;-93
2023/09/28 08:30:40;;;;;;;18.55;2.55;;;14.40;99.90;;;;;;4964233;28;20035;-94
2023/09/28 08:33:07;;;;;;;13.50;2.63;;;14.40;99.90;;;;;;4960300;28;20098;-92
2023/09/28 08:35:35;;;;;;;28.80;7.07;;;14.40;99.90;;;;;;4978958;28;20042;-93
2023/09/28 08:38:01;;;;;;;17.15;2.75;;;14.50;99.90;;;;;;4960593;28;20023;-93
2023/09/28 08:40:28;;;;;;;17.95;2.63;;;14.50;99.90;;;;;;4993450;28;20468;-92
2023/09/28 08:42:59;;;;;;;14.60;2.20;;;14.50;99.90;;;;;;4981206;28;20510;-93
2023/09/28 08:45:26;;;;;;;14.30;2.28;;;14.50;99.90;;;;;;4990288;28;20031;-92
2023/09/28 08:47:54;;;;;;;18.17;2.92;;;14.50;99.90;;;;;;4990169;28;20076;-92
2023/09/28 08:50:26;;;;;;;16.60;3.08;;;14.50;99.90;;;;;;4978936;28;20061;-94
2023/09/28 08:52:54;;;;;;;23.92;4.85;;;14.60;99.90;;;;;;4980136;28;20034;-93
2023/09/28 08:55:21;;;;;;;21.45;3.22;;;14.60;99.90;;;;;;4979403;28;20038;-93
2023/09/28 08:57:50;;;;;;;18.83;2.95;;;14.60;99.90;;;;;;4977803;28;20050;-93
2023/09/28 09:00:23;;;;;;;17.13;2.58;;;14.70;99.90;;;;;;4961751;28;20125;-94
2023/09/28 09:02:53;;;;;;;15.77;2.97;;;14.70;99.90;;;;;;4962824;28;20031;-92
2023/09/28 09:05:21;;;;;;;17.80;2.45;;;14.70;99.90;;;;;;4960573;28;20113;-94
2023/09/28 09:07:52;;;;;;;15.15;3.00;;;14.70;99.90;;;;;;4961225;28;20070;-93
2023/09/28 09:10:28;;;;;;;15.55;2.50;;;14.60;99.90;;;;;;4945273;28;20077;-94
2023/09/28 09:12:56;;;;;;;17.90;3.72;;;14.60;99.90;;;;;;4976744;28;20444;-94
2023/09/28 09:15:25;;;;;;;17.60;2.75;;;14.60;99.90;;;;;;4960792;28;20488;-94
2023/09/28 09:18:02;;;;;;;14.05;2.55;;;14.50;99.90;;;;;;4961624;28;20051;-93
2023/09/28 09:20:29;;;;;;;18.95;2.72;;;14.50;99.90;;;;;;4968082;28;20023;-93
2023/09/28 09:22:55;;;;;;;15.32;2.45;;;14.40;99.90;;;;;;4954205;28;20406;-93
2023/09/28 09:25:21;;;;;;;21.52;2.97;;;14.40;99.90;;;;;;4962018;28;20028;-93
2023/09/28 09:27:47;;;;;;;18.25;2.47;;;14.40;99.90;;;;;;4961177;28;20569;-95
2023/09/28 09:30:14;;;;;;;22.63;3.28;;;14.40;99.90;;;;;;4966816;28;20030;-94
2023/09/28 09:32:42;;;;;;;17.20;3.03;;;14.40;99.90;;;;;;4968610;28;20023;-94
2023/09/28 09:35:10;;;;;;;15.50;2.55;;;14.40;99.90;;;;;;4965719;28;20054;-94
2023/09/28 09:37:41;;;;;;;19.02;3.35;;;14.40;99.90;;;;;;4958048;28;20024;-95
2023/09/28 09:40:15;;;;;;;16.15;2.40;;;14.30;99.90;;;;;;4965650;28;20071;-93
2023/09/28 09:42:41;;;;;;;21.77;4.25;;;14.30;99.90;;;;;;4950937;28;20558;-94
2023/09/28 09:45:08;;;;;;;21.38;2.75;;;14.30;99.90;;;;;;4964328;28;20039;-93
2023/09/28 09:47:34;;;;;;;19.40;3.65;;;14.30;99.90;;;;;;4949532;28;20027;-93
2023/09/28 09:50:01;;;;;;;19.73;2.80;;;14.30;99.90;;;;;;4962276;28;20053;-95
2023/09/28 09:52:28;;;;;;;17.15;2.72;;;14.30;99.90;;;;;;4964392;28;20047;-94
2023/09/28 09:54:55;;;;;;;17.88;3.40;;;14.30;99.90;;;;;;4964735;28;20477;-92
2023/09/28 09:57:23;;;;;;;22.45;3.65;;;14.30;99.90;;;;;;4964856;28;20026;-93
2023/09/28 09:59:53;;;;;;;22.23;3.28;;;14.40;99.90;;;;;;4953747;28;20026;-91
2023/09/28 10:02:26;;;;;;;18.58;3.50;;;14.40;99.90;;;;;;4962020;28;20051;-93
2023/09/28 10:04:56;;;;;;;17.30;3.10;;;14.40;99.90;;;;;;4952053;28;20107;-94
2023/09/28 10:07:30;;;;;;;17.40;3.20;;;14.50;99.90;;;;;;4964066;28;20078;-94
2023/09/28 10:09:57;;;;;;;21.10;4.07;;;14.60;99.90;;;;;;4945543;28;20118;-96
2023/09/28 10:12:25;;;;;;;16.63;2.80;;;14.60;99.90;;;;;;4965237;28;20057;-93
2023/09/28 10:14:52;;;;;;;18.85;3.05;;;14.60;99.90;;;;;;4952273;28;20421;-94
2023/09/28 10:17:18;;;;;;;17.95;3.03;;;14.70;99.90;;;;;;4963692;28;20051;-93
2023/09/28 10:19:46;;;;;;;23.00;3.75;;;14.70;99.90;;;;;;4966603;28;20038;-94
2023/09/28 10:22:12;;;;;;;22.27;3.40;;;14.70;99.90;;;;;;4964299;28;20031;-93
2023/09/28 10:24:38;;;;;;;23.90;3.30;;;14.70;99.90;;;;;;4969816;28;20018;-95
2023/09/28 10:27:10;;;;;;;21.25;4.18;;;14.70;99.90;;;;;;4970514;28;20027;-94
2023/09/28 10:29:37;;;;;;;18.30;3.45;;;14.70;99.90;;;;;;4971523;28;20027;-94
2023/09/28 10:32:30;;;;;;;15.57;3.03;;;14.70;99.90;;;;;;4963509;28;20038;-93
2023/09/28 10:35:30;;;;;;;20.42;3.33;;;14.70;99.90;;;;;;4948417;28;20067;-96
2023/09/28 10:38:22;;;;;;;24.67;3.67;;;14.70;99.90;;;;;;4966007;28;20024;-94
2023/09/28 10:41:19;;;;;;;36.95;5.00;;;14.70;99.90;;;;;;4968962;28;20114;-94
2023/09/28 10:43:45;;;;;;;20.08;3.20;;;14.70;99.90;;;;;;4912788;29;20044;-93
2023/09/28 10:46:11;;;;;;;15.77;2.70;;;14.80;99.90;;;;;;4919823;29;20549;-94
2023/09/28 10:48:42;;;;;;;24.33;3.13;;;14.70;99.90;;;;;;4910579;29;20031;-91
2023/09/28 10:51:15;;;;;;;14.43;2.47;;;14.80;99.90;;;;;;4909880;29;20509;-93
2023/09/28 10:53:41;;;;;;;16.02;2.75;;;14.90;99.90;;;;;;4912335;29;20232;-94
2023/09/28 10:56:10;;;;;;;20.33;3.67;;;14.90;99.90;;;;;;4926661;29;20536;-93
2023/09/28 10:58:37;;;;;;;16.08;2.70;;;14.90;99.90;;;;;;4910390;29;20051;-93
2023/09/28 11:01:07;;;;;;;17.33;3.58;;;15.00;99.90;;;;;;4921694;29;20039;-93
2023/09/28 11:03:34;;;;;;;21.30;4.05;;;15.00;99.90;;;;;;4929910;29;20120;-92
2023/09/28 11:06:04;;;;;;;14.10;2.58;;;15.00;99.90;;;;;;4914555;29;20089;-93
2023/09/28 11:08:33;;;;;;;20.75;3.42;;;15.10;99.90;;;;;;4926532;29;20095;-94
2023/09/28 11:11:01;;;;;;;20.13;3.28;;;15.10;99.90;;;;;;4917314;29;20043;-93
2023/09/28 11:13:29;;;;;;;16.13;2.65;;;15.20;99.90;;;;;;4930876;29;20452;-92
2023/09/28 11:15:55;;;;;;;17.27;3.78;;;15.20;99.90;;;;;;4919871;29;20083;-91
2023/09/28 11:18:23;;;;;;;18.17;2.85;;;15.20;99.90;;;;;;4912222;29;20031;-94
2023/09/28 11:20:48;;;;;;;18.90;2.85;;;15.20;99.90;;;;;;4961062;28;20054;-94
2023/09/28 11:23:14;;;;;;;20.90;3.50;;;15.10;99.90;;;;;;4958753;28;20520;-95
2023/09/28 11:25:42;;;;;;;18.30;3.78;;;15.00;99.90;;;;;;4956032;28;20073;-93
2023/09/28 11:28:08;;;;;;;17.30;3.83;;;15.00;99.90;;;;;;4969676;28;20046;-93
2023/09/28 11:30:34;;;;;;;20.50;3.88;;;15.00;99.90;;;;;;4967240;28;20027;-94
2023/09/28 11:33:03;;;;;;;15.73;3.25;;;15.00;99.90;;;;;;4968365;28;20034;-95
2023/09/28 11:35:34;;;;;;;16.10;3.63;;;15.10;99.90;;;;;;4962183;28;20042;-96
2023/09/28 11:38:09;;;;;;;22.38;4.80;;;15.10;99.90;;;;;;4953441;28;20026;-95
2023/09/28 11:40:37;;;;;;;18.23;4.78;;;15.10;99.90;;;;;;4972494;28;20033;-95
2023/09/28 11:43:03;;;;;;;16.48;3.45;;;15.20;99.90;;;;;;4970436;28;20417;-93
2023/09/28 11:45:31;;;;;;;14.93;3.13;;;15.20;99.90;;;;;;4951504;28;20031;-95
2023/09/28 11:47:57;;;;;;;19.10;3.17;;;15.20;99.90;;;;;;4972771;28;20095;-95
2023/09/28 11:50:27;;;;;;;20.42;3.92;;;15.20;99.90;;;;;;4965318;28;20059;-95
2023/09/28 11:52:53;;;;;;;14.10;3.20;;;15.30;99.90;;;;;;4947786;28;20027;-95
2023/09/28 11:55:19;;;;;;;15.70;4.07;;;15.40;99.90;;;;;;4963090;28;20408;-94
2023/09/28 11:57:46;;;;;;;17.35;3.97;;;15.60;99.90;;;;;;4962621;28;20548;-95
2023/09/28 12:00:19;;;;;;;15.25;2.95;;;15.80;99.90;;;;;;4959352;28;20022;-93
2023/09/28 12:02:48;;;;;;;23.48;5.55;;;15.90;99.90;;;;;;4963276;28;20028;-94
2023/09/28 12:05:14;;;;;;;20.50;3.97;;;15.80;99.90;;;;;;4952886;28;20031;-94
2023/09/28 12:07:41;;;;;;;21.92;2.97;;;15.80;99.90;;;;;;4951620;28;20504;-94
2023/09/28 12:10:17;;;;;;;18.73;3.72;;;15.90;99.90;;;;;;4966006;28;20027;-93
2023/09/28 12:12:44;;;;;;;14.80;3.50;;;15.90;99.90;;;;;;4966895;28;20102;-94
2023/09/28 12:15:14;;;;;;;13.93;3.92;;;16.20;99.90;;;;;;4963106;28;20107;-94
2023/09/28 12:17:41;;;;;;;18.70;3.55;;;16.30;99.90;;;;;;4972349;28;20019;-93
2023/09/28 12:20:14;;;;;;;15.00;3.33;;;16.40;99.90;;;;;;4972852;28;20023;-93
2023/09/28 12:22:43;;;;;;;19.17;3.40;;;16.50;99.90;;;;;;4970310;28;20058;-91
2023/09/28 12:25:10;;;;;;;19.58;4.22;;;16.70;99.90;;;;;;4976383;28;20062;-92
2023/09/28 12:27:36;;;;;;;14.10;3.03;;;17.00;99.90;;;;;;4970378;28;20405;-92
2023/09/28 12:30:03;;;;;;;17.98;3.17;;;17.20;99.90;;;;;;4968013;28;20037;-93
2023/09/28 12:32:29;;;;;;;23.10;3.70;;;17.50;99.90;;;;;;4991735;28;20039;-93
2023/09/28 12:34:56;;;;;;;18.17;4.43;;;17.60;99.90;;;;;;4985704;28;20043;-93
2023/09/28 12:37:24;;;;;;;14.98;2.80;;;17.70;99.90;;;;;;4985322;28;20031;-94
2023/09/28 12:39:53;;;;;;;18.35;3.90;;;17.80;99.90;;;;;;4987824;28;20015;-91
2023/09/28 12:42:24;;;;;;;12.50;3.50;;;17.70;99.90;;;;;;4984038;28;20024;-95